Time;durP1;ratioP1;P1;durP2;ratioP2;P2;SDS_P1;SDS_P2;PMS_P1;PMS_P2;Temp;Humidity;BMP_temperature;BMP_pressure;BME280_temperature;BME280_humidity;BME280_pressure;Samples;Min_cycle;Max_cycle;Signal;HPM_P1;HPM_P2
2021/12/19 00:02:14;;;;;;;18.10;4.32;;;6.70;99.90;;;;;;4999782;28;20498;-76
2021/12/19 00:09:49;;;;;;;16.67;4.78;;;6.70;99.90;;;;;;5018412;28;20037;-76
2021/12/19 00:12:14;;;;;;;22.23;3.83;;;6.70;99.90;;;;;;5017278;28;20034;-76
2021/12/19 00:14:40;;;;;;;16.10;3.83;;;6.70;99.90;;;;;;4999631;28;20018;-76
2021/12/19 00:17:06;;;;;;;11.98;3.10;;;6.70;99.90;;;;;;5017452;28;20048;-75
2021/12/19 00:19:31;;;;;;;14.07;3.75;;;6.70;99.90;;;;;;5017257;28;20505;-75
2021/12/19 00:21:57;;;;;;;18.65;3.90;;;6.70;99.90;;;;;;4999503;28;20028;-75
2021/12/19 00:24:24;;;;;;;13.63;3.58;;;6.70;99.90;;;;;;5017736;28;20025;-76
2021/12/19 00:26:50;;;;;;;8.02;2.05;;;6.70;99.90;;;;;;5017648;28;20026;-76
2021/12/19 00:29:15;;;;;;;12.50;3.75;;;6.70;99.90;;;;;;5017551;28;20502;-76
2021/12/19 00:31:43;;;;;;;12.20;3.42;;;6.60;99.90;;;;;;5017067;28;20030;-76
2021/12/19 00:34:08;;;;;;;16.10;4.25;;;6.60;99.90;;;;;;5016942;28;20371;-74
2021/12/19 00:36:34;;;;;;;12.70;3.28;;;6.60;99.90;;;;;;5016840;28;20041;-76
2021/12/19 00:39:00;;;;;;;15.82;3.65;;;6.70;99.90;;;;;;4999161;28;20029;-76
2021/12/19 00:41:25;;;;;;;11.10;2.90;;;6.60;99.90;;;;;;5016723;28;20486;-76
2021/12/19 00:43:55;;;;;;;12.60;3.08;;;6.60;99.90;;;;;;5016653;28;20072;-76
2021/12/19 00:46:24;;;;;;;13.80;3.05;;;6.60;99.90;;;;;;5016620;28;20393;-76
2021/12/19 00:48:52;;;;;;;15.23;3.47;;;6.60;99.90;;;;;;5016810;28;20018;-75
2021/12/19 00:51:22;;;;;;;11.60;3.17;;;6.60;99.90;;;;;;5016569;28;20026;-76
2021/12/19 00:53:48;;;;;;;13.63;3.10;;;6.60;99.90;;;;;;4998859;28;20034;-76
2021/12/19 00:56:15;;;;;;;14.93;3.83;;;6.70;99.90;;;;;;5016578;28;20434;-76
2021/12/19 00:58:40;;;;;;;11.70;3.83;;;6.60;99.90;;;;;;4998671;28;20050;-75
2021/12/19 01:01:07;;;;;;;14.98;3.63;;;6.60;99.90;;;;;;4998513;28;20022;-76
2021/12/19 01:03:34;;;;;;;15.23;4.40;;;6.60;99.90;;;;;;5016197;28;20021;-76
2021/12/19 01:06:00;;;;;;;15.20;3.97;;;6.70;99.90;;;;;;5016568;28;20079;-75
2021/12/19 01:08:26;;;;;;;17.38;5.13;;;6.70;99.90;;;;;;5016430;28;20026;-75
2021/12/19 01:10:52;;;;;;;19.02;4.70;;;6.70;99.90;;;;;;4997434;28;20364;-76
2021/12/19 01:13:18;;;;;;;23.00;4.80;;;6.70;99.90;;;;;;5016445;28;20502;-75
2021/12/19 01:15:46;;;;;;;18.83;4.40;;;6.70;99.90;;;;;;5016240;28;20026;-76
2021/12/19 01:18:13;;;;;;;30.60;5.60;;;6.70;99.90;;;;;;5016193;28;20100;-76
2021/12/19 01:20:41;;;;;;;22.88;5.40;;;6.70;99.90;;;;;;5016431;28;20036;-76
2021/12/19 01:23:07;;;;;;;19.73;4.78;;;6.80;99.90;;;;;;5016515;28;20022;-76
2021/12/19 01:25:32;;;;;;;20.10;5.45;;;6.80;99.90;;;;;;5016068;28;20045;-76
2021/12/19 01:27:58;;;;;;;14.52;4.63;;;6.80;99.90;;;;;;5016778;28;20140;-76
2021/12/19 01:30:24;;;;;;;15.88;5.53;;;6.80;99.90;;;;;;5016521;28;20014;-75
2021/12/19 01:32:50;;;;;;;20.95;5.28;;;6.80;99.90;;;;;;4998575;28;20037;-75
2021/12/19 01:35:17;;;;;;;21.63;6.53;;;6.80;99.90;;;;;;5016092;28;20025;-76
2021/12/19 01:37:43;;;;;;;18.17;6.13;;;6.80;99.90;;;;;;5015975;28;20025;-75
2021/12/19 01:40:13;;;;;;;18.30;6.35;;;6.80;99.90;;;;;;5015923;28;20116;-76
2021/12/19 01:42:40;;;;;;;20.65;5.65;;;6.80;99.90;;;;;;5015283;28;20407;-76
2021/12/19 01:45:10;;;;;;;18.05;5.70;;;6.80;99.90;;;;;;5015273;28;20037;-76
2021/12/19 01:47:36;;;;;;;15.73;5.50;;;6.80;99.90;;;;;;5013723;28;20053;-76
2021/12/19 01:50:04;;;;;;;19.75;5.43;;;6.80;99.90;;;;;;5015204;28;20026;-76
2021/12/19 01:52:30;;;;;;;23.65;5.90;;;6.80;99.90;;;;;;4997626;28;20124;-75
2021/12/19 01:54:56;;;;;;;19.63;6.72;;;6.80;99.90;;;;;;5015088;28;20066;-76
2021/12/19 01:57:24;;;;;;;18.05;6.13;;;6.80;99.90;;;;;;4997264;28;20121;-76
2021/12/19 01:59:50;;;;;;;15.32;5.70;;;6.80;99.90;;;;;;5015041;28;20026;-76
2021/12/19 02:02:16;;;;;;;21.83;5.88;;;6.80;99.90;;;;;;5013486;28;20044;-76
2021/12/19 02:04:43;;;;;;;19.45;6.03;;;6.90;99.90;;;;;;5013987;28;20467;-77
2021/12/19 02:07:10;;;;;;;16.88;5.60;;;6.80;99.90;;;;;;5013958;28;20495;-76
2021/12/19 02:09:36;;;;;;;11.40;3.15;;;6.90;99.90;;;;;;5015112;28;20152;-77
2021/12/19 02:12:03;;;;;;;10.18;3.53;;;6.80;99.90;;;;;;5014028;28;20069;-77
2021/12/19 02:14:29;;;;;;;9.73;3.25;;;6.90;99.90;;;;;;5015392;28;20036;-77
2021/12/19 02:16:54;;;;;;;10.50;2.58;;;6.90;99.90;;;;;;5015257;28;20112;-77
2021/12/19 02:19:20;;;;;;;11.30;2.85;;;6.90;99.90;;;;;;5013714;28;20030;-77
2021/12/19 02:21:45;;;;;;;9.88;2.38;;;6.90;99.90;;;;;;5014780;28;20014;-77
2021/12/19 02:24:11;;;;;;;8.30;2.20;;;6.90;99.90;;;;;;4997578;28;20068;-77
2021/12/19 02:26:39;;;;;;;8.73;2.38;;;6.90;99.90;;;;;;5014939;28;20045;-77
2021/12/19 02:29:06;;;;;;;7.72;2.03;;;6.90;99.90;;;;;;4997466;28;20057;-77
2021/12/19 02:31:31;;;;;;;6.93;1.33;;;6.90;99.90;;;;;;4997926;28;20026;-77
2021/12/19 02:34:08;;;;;;;5.15;1.08;;;6.90;99.90;;;;;;5015098;28;20104;-77
2021/12/19 02:50:01;;;;;;;8.30;1.65;;;6.90;99.90;;;;;;5015271;28;20092;-77
2021/12/19 02:52:27;;;;;;;5.05;0.52;;;6.90;99.90;;;;;;5014586;28;20038;-77
2021/12/19 02:54:52;;;;;;;4.40;1.00;;;6.90;99.90;;;;;;5015095;28;20383;-77
2021/12/19 02:57:18;;;;;;;3.28;0.60;;;6.90;99.90;;;;;;5016025;28;20037;-78
2021/12/19 02:59:44;;;;;;;3.55;0.20;;;6.90;99.90;;;;;;5014247;28;20026;-78
2021/12/19 03:02:10;;;;;;;4.28;0.35;;;6.90;99.90;;;;;;5012826;28;20010;-77
2021/12/19 03:04:35;;;;;;;3.35;0.43;;;6.90;99.90;;;;;;5014263;28;20026;-77
2021/12/19 03:07:01;;;;;;;1.00;0.10;;;6.90;99.90;;;;;;5014227;28;20022;-77
2021/12/19 03:09:49;;;;;;;2.15;0.32;;;6.90;99.90;;;;;;5014049;28;20026;-77
2021/12/19 03:20:15;;;;;;;4.05;0.70;;;6.90;99.90;;;;;;4996458;28;20101;-76
2021/12/19 03:22:40;;;;;;;8.07;1.17;;;6.90;99.90;;;;;;4978277;28;20022;-77
2021/12/19 03:25:06;;;;;;;3.53;0.90;;;7.00;99.90;;;;;;4994508;28;20014;-77
2021/12/19 03:27:32;;;;;;;7.15;1.48;;;7.00;99.90;;;;;;4995349;28;20026;-75
2021/12/19 03:29:57;;;;;;;8.63;1.40;;;7.00;99.90;;;;;;4976595;28;20041;-77
2021/12/19 03:32:25;;;;;;;8.70;1.75;;;7.10;99.90;;;;;;4994163;28;20027;-76
2021/12/19 03:34:50;;;;;;;8.10;1.48;;;7.10;99.90;;;;;;4978331;28;20472;-76
2021/12/19 03:37:16;;;;;;;8.10;1.15;;;7.10;99.90;;;;;;4998105;28;20030;-76
2021/12/19 03:39:56;;;;;;;5.07;1.50;;;7.10;99.90;;;;;;4997839;28;20030;-76
2021/12/19 03:42:26;;;;;;;7.38;1.45;;;7.10;99.90;;;;;;4980605;28;20497;-75
2021/12/19 03:44:53;;;;;;;4.03;0.95;;;7.20;99.90;;;;;;4993432;28;20041;-78
2021/12/19 03:47:19;;;;;;;10.27;2.67;;;7.20;99.90;;;;;;5017691;28;20100;-75
2021/12/19 03:49:53;;;;;;;9.40;2.63;;;7.20;99.90;;;;;;5000068;28;20025;-76
2021/12/19 03:52:19;;;;;;;9.88;2.20;;;7.20;99.90;;;;;;4999575;28;20056;-75
2021/12/19 03:54:44;;;;;;;9.48;2.67;;;7.20;99.90;;;;;;5017597;28;20109;-75
2021/12/19 03:57:10;;;;;;;11.52;3.33;;;7.30;99.90;;;;;;5018101;28;20082;-76
2021/12/19 03:59:35;;;;;;;8.30;2.78;;;7.30;99.90;;;;;;4999313;28;20452;-75
2021/12/19 04:02:02;;;;;;;10.77;3.05;;;7.30;99.90;;;;;;5018913;28;20025;-77
2021/12/19 04:04:29;;;;;;;9.35;2.92;;;7.30;99.90;;;;;;5018226;28;20069;-75
2021/12/19 04:06:55;;;;;;;9.00;2.92;;;7.40;99.90;;;;;;5017770;28;20463;-76
2021/12/19 04:09:20;;;;;;;9.73;2.80;;;7.30;99.90;;;;;;5000972;28;20037;-77
2021/12/19 04:11:46;;;;;;;9.40;2.38;;;7.40;99.90;;;;;;5017675;28;20037;-77
2021/12/19 04:14:12;;;;;;;8.38;2.13;;;7.40;99.90;;;;;;5017880;28;20022;-77
2021/12/19 04:16:42;;;;;;;9.25;2.40;;;7.40;99.90;;;;;;5017661;28;20022;-77
2021/12/19 04:19:08;;;;;;;5.72;1.50;;;7.40;99.90;;;;;;4999914;28;20022;-77
2021/12/19 04:21:34;;;;;;;7.15;1.63;;;7.40;99.90;;;;;;4999923;28;20026;-77
2021/12/19 04:23:59;;;;;;;7.40;1.85;;;7.30;99.90;;;;;;5017928;28;20105;-76
2021/12/19 04:26:25;;;;;;;5.70;1.90;;;7.30;99.90;;;;;;5017480;28;20029;-77
2021/12/19 04:28:50;;;;;;;8.20;1.85;;;7.30;99.90;;;;;;5017392;28;20026;-76
2021/12/19 04:31:16;;;;;;;4.97;1.05;;;7.30;99.90;;;;;;5017386;28;20517;-76
2021/12/19 04:33:42;;;;;;;7.35;1.05;;;7.40;99.90;;;;;;5011997;28;20029;-77
2021/12/19 04:36:10;;;;;;;6.78;1.52;;;7.40;99.90;;;;;;4999477;28;20076;-77
2021/12/19 04:54:49;;;;;;;12.23;2.10;;;7.40;99.90;;;;;;5017539;28;20038;-76
2021/12/19 05:00:11;;;;;;;8.30;1.98;;;7.40;99.90;;;;;;5016223;28;20041;-75
2021/12/19 05:02:57;;;;;;;7.00;2.08;;;7.40;99.90;;;;;;5014924;28;20018;-76
2021/12/19 05:16:04;;;;;;;6.57;1.63;;;7.40;99.90;;;;;;5017357;28;20068;-77
2021/12/19 05:18:33;;;;;;;7.82;1.73;;;7.40;99.90;;;;;;5014818;28;20449;-75
2021/12/19 05:21:04;;;;;;;8.65;1.85;;;7.40;99.90;;;;;;5016501;28;20025;-78
2021/12/19 05:25:55;;;;;;;6.40;2.63;;;7.40;99.90;;;;;;5016071;28;20030;-76
2021/12/19 05:28:21;;;;;;;8.50;2.88;;;7.40;99.90;;;;;;5015662;28;20041;-77
2021/12/19 05:30:47;;;;;;;13.27;4.63;;;7.40;99.90;;;;;;5016112;28;20026;-77
2021/12/19 05:33:12;;;;;;;16.52;5.25;;;7.50;99.90;;;;;;5017078;28;20022;-77
2021/12/19 05:46:36;;;;;;;14.90;5.43;;;7.50;99.90;;;;;;5016680;28;20156;-76
2021/12/19 05:49:04;;;;;;;14.27;5.25;;;7.50;99.90;;;;;;5016463;28;20049;-78
2021/12/19 05:51:30;;;;;;;12.60;4.65;;;7.50;99.90;;;;;;5017915;28;20025;-77
2021/12/19 05:53:55;;;;;;;8.70;4.10;;;7.50;99.90;;;;;;5016814;28;20526;-77
2021/12/19 05:56:21;;;;;;;11.82;4.53;;;7.50;99.90;;;;;;5015253;28;20434;-77
2021/12/19 05:58:46;;;;;;;8.93;3.42;;;7.50;99.90;;;;;;5015670;28;20034;-77
2021/12/19 06:01:12;;;;;;;10.95;3.65;;;7.50;99.90;;;;;;4998240;28;20064;-78
2021/12/19 06:03:38;;;;;;;13.63;4.75;;;7.50;99.90;;;;;;5016970;28;20077;-78
2021/12/19 06:06:03;;;;;;;19.17;6.55;;;7.40;99.90;;;;;;4997873;28;20018;-75
2021/12/19 06:08:29;;;;;;;17.55;6.25;;;7.50;99.90;;;;;;4997498;28;20037;-77
2021/12/19 06:10:54;;;;;;;20.77;6.93;;;7.40;99.90;;;;;;4997213;28;20060;-77
2021/12/19 06:13:20;;;;;;;21.35;8.90;;;7.50;99.90;;;;;;5015636;28;20022;-77
2021/12/19 06:15:49;;;;;;;14.27;5.70;;;7.50;99.90;;;;;;4997258;28;20061;-77
2021/12/19 06:18:15;;;;;;;15.60;4.78;;;7.50;99.90;;;;;;4998315;28;20064;-77
2021/12/19 06:20:40;;;;;;;12.73;4.25;;;7.50;99.90;;;;;;4997962;28;20386;-78
2021/12/19 06:23:08;;;;;;;11.98;4.45;;;7.50;99.90;;;;;;5015423;28;20029;-77
2021/12/19 06:25:34;;;;;;;10.60;3.90;;;7.40;99.90;;;;;;5015067;28;20439;-77
2021/12/19 06:27:59;;;;;;;8.38;3.75;;;7.40;99.90;;;;;;5014370;28;20026;-76
2021/12/19 06:30:25;;;;;;;8.25;2.78;;;7.40;99.90;;;;;;5015365;28;20109;-77
2021/12/19 06:32:51;;;;;;;9.50;2.95;;;7.50;99.90;;;;;;5015190;28;20018;-77
2021/12/19 06:35:21;;;;;;;6.38;1.92;;;7.50;99.90;;;;;;5016698;28;20030;-75
2021/12/19 06:37:48;;;;;;;5.82;2.45;;;7.40;99.90;;;;;;5015078;28;20483;-77
2021/12/19 06:40:19;;;;;;;2.90;1.15;;;7.40;99.90;;;;;;5014698;28;20088;-75
2021/12/19 06:42:45;;;;;;;3.38;0.95;;;7.40;99.90;;;;;;5015519;28;20022;-76
2021/12/19 06:45:11;;;;;;;2.42;0.45;;;7.40;99.90;;;;;;5015392;28;20098;-77
2021/12/19 06:47:37;;;;;;;2.22;0.40;;;7.40;99.90;;;;;;5015688;28;20049;-76
2021/12/19 06:50:04;;;;;;;1.05;0.20;;;7.30;99.90;;;;;;5015265;28;20028;-77
2021/12/19 06:52:30;;;;;;;2.80;0.57;;;7.30;99.90;;;;;;4997510;28;20125;-78
2021/12/19 06:54:55;;;;;;;3.70;0.52;;;7.30;99.90;;;;;;4997301;28;20060;-77
2021/12/19 06:57:21;;;;;;;2.50;0.30;;;7.30;99.90;;;;;;4998619;28;20018;-77
2021/12/19 06:59:47;;;;;;;1.58;0.25;;;7.30;99.90;;;;;;4998186;28;20464;-76
2021/12/19 07:02:15;;;;;;;1.63;0.00;;;7.30;99.90;;;;;;5014854;28;20375;-77
2021/12/19 07:04:42;;;;;;;1.85;0.32;;;7.20;99.90;;;;;;5015025;28;20018;-77
2021/12/19 07:07:07;;;;;;;2.65;0.10;;;7.20;99.90;;;;;;5014787;28;20026;-77
2021/12/19 07:09:33;;;;;;;1.35;0.05;;;7.20;99.90;;;;;;5013792;28;20423;-77
2021/12/19 07:11:59;;;;;;;1.17;0.10;;;7.20;99.90;;;;;;5014648;28;20091;-77
2021/12/19 07:14:24;;;;;;;1.08;0.10;;;7.20;99.90;;;;;;4996905;28;20026;-76
2021/12/19 07:16:50;;;;;;;0.30;0.00;;;7.20;99.90;;;;;;5014576;28;20116;-76
2021/12/19 07:19:15;;;;;;;2.75;0.30;;;7.20;99.90;;;;;;5014919;28;20611;-77
2021/12/19 07:21:41;;;;;;;1.25;0.00;;;7.20;99.90;;;;;;4996990;28;20105;-76
2021/12/19 07:24:06;;;;;;;1.08;0.10;;;7.20;99.90;;;;;;4996733;28;20479;-77
2021/12/19 07:26:32;;;;;;;3.28;0.13;;;7.10;99.90;;;;;;4997116;28;20033;-77
2021/12/19 07:28:58;;;;;;;0.63;0.10;;;7.10;99.90;;;;;;4993317;28;20034;-77
2021/12/19 07:31:23;;;;;;;1.02;0.25;;;7.10;99.90;;;;;;4993489;28;20491;-77
2021/12/19 07:33:52;;;;;;;1.00;0.10;;;7.10;99.90;;;;;;4995180;28;20036;-77
2021/12/19 07:36:18;;;;;;;0.85;0.03;;;7.10;99.90;;;;;;4994673;28;20026;-77
2021/12/19 07:38:55;;;;;;;1.50;0.20;;;7.10;99.90;;;;;;4978059;28;20023;-77
2021/12/19 07:41:21;;;;;;;0.90;0.10;;;7.10;99.90;;;;;;4995924;28;20045;-77
2021/12/19 07:43:46;;;;;;;1.13;0.30;;;7.10;99.90;;;;;;5008950;28;20026;-76
2021/12/19 07:46:12;;;;;;;3.28;0.28;;;7.10;99.90;;;;;;5013998;28;20080;-78
2021/12/19 07:48:37;;;;;;;1.38;0.10;;;7.10;99.90;;;;;;4985934;28;20080;-75
2021/12/19 07:51:03;;;;;;;0.52;0.10;;;7.10;99.90;;;;;;5000841;28;20034;-75
2021/12/19 07:53:28;;;;;;;2.95;0.10;;;7.10;99.90;;;;;;5003078;28;20053;-76
2021/12/19 07:55:55;;;;;;;1.95;0.45;;;7.10;99.90;;;;;;5012417;28;20069;-77
2021/12/19 07:58:20;;;;;;;0.88;0.03;;;7.10;99.90;;;;;;5015256;28;20129;-77
2021/12/19 08:00:46;;;;;;;0.50;0.10;;;7.10;99.90;;;;;;5013751;28;20070;-76
2021/12/19 08:03:11;;;;;;;0.75;0.10;;;7.10;99.90;;;;;;5012407;28;20033;-75
2021/12/19 08:05:37;;;;;;;2.30;0.13;;;7.10;99.90;;;;;;5013408;28;20029;-77
2021/12/19 08:08:05;;;;;;;0.73;0.00;;;7.10;99.90;;;;;;5013934;28;20053;-77
2021/12/19 08:12:57;;;;;;;4.95;0.55;;;7.20;99.90;;;;;;5015137;28;20026;-77
2021/12/19 08:15:22;;;;;;;0.80;0.00;;;7.20;99.90;;;;;;5015051;28;20419;-78
2021/12/19 08:17:48;;;;;;;0.13;0.00;;;7.20;99.90;;;;;;5014255;28;20030;-77
2021/12/19 08:20:15;;;;;;;0.65;0.00;;;7.20;99.90;;;;;;5015523;28;20022;-77
2021/12/19 08:22:41;;;;;;;4.38;0.00;;;7.10;99.90;;;;;;5016711;28;20487;-77
2021/12/19 08:25:07;;;;;;;0.30;0.00;;;7.10;99.90;;;;;;5017091;28;20097;-77
2021/12/19 08:27:34;;;;;;;0.17;0.00;;;7.20;99.90;;;;;;5016428;28;20541;-77
2021/12/19 08:30:00;;;;;;;1.90;0.05;;;7.20;99.90;;;;;;5015907;28;20022;-76
2021/12/19 08:32:25;;;;;;;0.30;0.00;;;7.10;99.90;;;;;;5016590;28;20475;-77
2021/12/19 08:34:51;;;;;;;0.63;0.00;;;7.10;99.90;;;;;;5016565;28;20033;-77
2021/12/19 08:37:17;;;;;;;0.85;0.00;;;7.20;99.90;;;;;;5016186;28;20084;-76
2021/12/19 08:39:44;;;;;;;0.00;0.00;;;7.20;99.90;;;;;;4999899;28;20025;-77
2021/12/19 08:42:10;;;;;;;2.13;0.00;;;7.20;99.90;;;;;;5015675;28;20510;-77
2021/12/19 08:44:36;;;;;;;0.35;0.00;;;7.20;99.90;;;;;;4999610;28;20072;-77
2021/12/19 08:47:03;;;;;;;0.77;0.00;;;7.20;99.90;;;;;;5016708;28;20490;-77
2021/12/19 08:49:28;;;;;;;0.77;0.00;;;7.20;99.90;;;;;;5016921;28;20438;-76
2021/12/19 08:51:54;;;;;;;1.77;0.25;;;7.30;99.90;;;;;;4998199;28;20014;-76
2021/12/19 08:54:20;;;;;;;1.25;0.00;;;7.30;99.90;;;;;;4999622;28;20405;-76
2021/12/19 08:56:45;;;;;;;0.00;0.00;;;7.40;99.90;;;;;;5015203;28;20116;-77
2021/12/19 08:59:11;;;;;;;0.00;0.00;;;7.40;99.90;;;;;;4998176;28;20457;-76
2021/12/19 09:01:37;;;;;;;0.28;0.00;;;7.40;99.90;;;;;;5016959;28;20041;-77
2021/12/19 09:04:03;;;;;;;0.30;0.00;;;7.40;99.90;;;;;;4998842;28;20018;-77
2021/12/19 09:06:29;;;;;;;0.17;0.00;;;7.40;99.90;;;;;;5015701;28;20116;-76
2021/12/19 09:08:54;;;;;;;0.43;0.00;;;7.40;99.90;;;;;;4999213;28;20085;-77
2021/12/19 09:11:21;;;;;;;0.85;0.00;;;7.40;99.90;;;;;;5016477;28;20033;-77
2021/12/19 09:13:46;;;;;;;1.00;0.00;;;7.50;99.90;;;;;;5016658;28;20117;-77
2021/12/19 09:16:12;;;;;;;1.33;0.00;;;7.50;99.90;;;;;;5017136;28;20068;-76
2021/12/19 09:18:38;;;;;;;1.73;0.10;;;7.60;99.90;;;;;;4999621;28;20018;-77
2021/12/19 09:21:04;;;;;;;0.10;0.00;;;7.50;99.90;;;;;;5017295;28;20033;-77
2021/12/19 09:23:30;;;;;;;0.52;0.10;;;7.60;99.90;;;;;;5016633;28;20105;-76
2021/12/19 09:25:55;;;;;;;2.00;0.00;;;7.50;99.90;;;;;;5014811;28;20557;-76
2021/12/19 09:28:21;;;;;;;1.77;0.00;;;7.60;99.90;;;;;;4998872;28;20041;-76
2021/12/19 09:30:46;;;;;;;2.50;0.00;;;7.60;99.90;;;;;;4998813;28;20506;-76
2021/12/19 09:33:13;;;;;;;0.25;0.00;;;7.50;99.90;;;;;;4997962;28;20033;-77
2021/12/19 09:35:38;;;;;;;0.28;0.00;;;7.60;99.90;;;;;;5016161;28;20028;-76
2021/12/19 09:38:05;;;;;;;0.47;0.00;;;7.60;99.90;;;;;;5014469;28;20033;-77
2021/12/19 09:40:35;;;;;;;2.72;0.10;;;7.60;99.90;;;;;;5015158;28;20435;-78
2021/12/19 09:43:41;;;;;;;0.73;0.00;;;7.60;99.90;;;;;;5017653;28;20032;-76
2021/12/19 09:46:08;;;;;;;1.08;0.15;;;7.60;99.90;;;;;;5015801;28;20029;-77
2021/12/19 09:48:33;;;;;;;0.32;0.00;;;7.70;99.90;;;;;;5014864;28;20026;-77
2021/12/19 09:50:59;;;;;;;1.60;0.08;;;7.70;99.90;;;;;;5015382;28;20038;-77
2021/12/19 09:53:25;;;;;;;0.35;0.15;;;7.70;99.90;;;;;;5016019;28;20085;-76
2021/12/19 09:55:50;;;;;;;2.90;0.00;;;7.70;99.90;;;;;;5015782;28;20026;-77
2021/12/19 09:58:16;;;;;;;0.45;0.00;;;7.70;99.90;;;;;;5014488;28;20021;-77
2021/12/19 10:00:41;;;;;;;1.05;0.17;;;7.70;99.90;;;;;;5014165;28;20117;-77
2021/12/19 10:03:11;;;;;;;3.35;0.20;;;7.80;99.90;;;;;;5014701;28;20026;-77
2021/12/19 10:05:36;;;;;;;0.85;0.10;;;7.80;99.90;;;;;;5014798;28;20021;-77
2021/12/19 10:08:03;;;;;;;1.70;0.10;;;7.80;99.90;;;;;;5015920;28;20499;-77
2021/12/19 10:10:53;;;;;;;1.63;0.43;;;7.70;99.90;;;;;;5015233;28;20474;-75
2021/12/19 10:13:36;;;;;;;7.00;0.32;;;7.80;99.90;;;;;;5016040;28;20053;-77
2021/12/19 10:16:24;;;;;;;2.33;0.32;;;7.80;99.90;;;;;;5014751;28;20064;-77
2021/12/19 10:18:54;;;;;;;2.53;0.17;;;7.80;99.90;;;;;;5013849;28;20041;-77
2021/12/19 10:21:21;;;;;;;6.82;0.10;;;7.80;99.90;;;;;;5014768;28;20656;-77
2021/12/19 10:23:47;;;;;;;4.28;0.38;;;7.80;99.90;;;;;;5014181;28;20017;-77
2021/12/19 10:26:13;;;;;;;1.77;0.45;;;7.80;99.90;;;;;;5014816;28;20479;-77
2021/12/19 10:28:55;;;;;;;5.20;0.50;;;7.80;99.90;;;;;;5014659;28;20053;-77
2021/12/19 10:31:22;;;;;;;1.65;0.10;;;7.90;99.90;;;;;;4997051;28;20087;-77
2021/12/19 10:33:48;;;;;;;2.90;0.28;;;7.90;99.90;;;;;;5014914;28;20053;-77
2021/12/19 10:36:16;;;;;;;5.15;0.63;;;7.90;99.90;;;;;;5014540;28;20105;-77
2021/12/19 10:38:47;;;;;;;2.10;0.30;;;7.90;99.90;;;;;;5015033;28;20478;-76
2021/12/19 10:41:17;;;;;;;3.03;0.20;;;7.80;99.90;;;;;;5013378;28;20273;-76
2021/12/19 10:44:02;;;;;;;6.32;0.30;;;7.80;99.90;;;;;;5014622;28;20422;-77
2021/12/19 10:46:37;;;;;;;4.07;0.35;;;7.80;99.90;;;;;;5014838;28;20148;-77
2021/12/19 10:49:03;;;;;;;6.50;0.55;;;7.80;99.90;;;;;;5014868;28;20026;-76
2021/12/19 10:51:33;;;;;;;3.92;0.43;;;7.80;99.90;;;;;;5014368;28;20045;-77
2021/12/19 10:54:03;;;;;;;4.00;0.28;;;7.90;99.90;;;;;;5014069;28;20037;-77
2021/12/19 10:56:37;;;;;;;1.30;0.25;;;7.90;99.90;;;;;;5014329;28;20037;-77
2021/12/19 10:59:10;;;;;;;4.40;0.32;;;8.00;99.90;;;;;;5014228;28;20030;-77
2021/12/19 11:01:38;;;;;;;10.95;0.63;;;8.00;99.90;;;;;;4993731;28;20026;-77
2021/12/19 11:04:17;;;;;;;5.95;0.65;;;8.00;99.90;;;;;;5009797;28;20387;-77
2021/12/19 11:06:53;;;;;;;4.00;0.10;;;8.00;99.90;;;;;;4996619;28;20018;-77
2021/12/19 11:09:45;;;;;;;3.30;0.10;;;8.00;99.90;;;;;;5014327;28;20026;-77
2021/12/19 11:12:11;;;;;;;6.05;0.70;;;8.00;99.90;;;;;;4993328;28;20065;-77
2021/12/19 11:14:39;;;;;;;3.55;0.47;;;8.00;99.90;;;;;;5012852;28;20026;-77
2021/12/19 11:17:16;;;;;;;3.33;0.30;;;8.00;99.90;;;;;;5012451;28;20030;-76
2021/12/19 11:19:43;;;;;;;4.88;0.10;;;8.00;99.90;;;;;;5012602;28;20398;-76
2021/12/19 11:22:11;;;;;;;3.25;0.20;;;8.00;99.90;;;;;;5012460;28;20025;-76
2021/12/19 11:24:36;;;;;;;7.63;0.35;;;8.00;99.90;;;;;;4996192;28;20385;-77
2021/12/19 11:27:05;;;;;;;1.83;0.05;;;8.00;99.90;;;;;;4996318;28;20089;-76
2021/12/19 11:29:30;;;;;;;6.55;0.35;;;7.90;99.90;;;;;;5013726;28;20088;-77
2021/12/19 11:31:59;;;;;;;6.13;0.38;;;7.90;99.90;;;;;;5012410;28;20049;-77
2021/12/19 11:34:49;;;;;;;6.47;0.52;;;8.00;99.90;;;;;;5013476;28;20022;-77
2021/12/19 11:37:22;;;;;;;4.75;0.30;;;8.00;99.90;;;;;;5013584;28;20124;-76
2021/12/19 11:39:53;;;;;;;3.75;1.00;;;8.00;99.90;;;;;;4995907;28;20108;-78
2021/12/19 11:42:30;;;;;;;8.18;1.05;;;8.00;99.90;;;;;;4976932;28;20395;-76
2021/12/19 11:47:51;;;;;;;7.30;0.68;;;7.90;99.90;;;;;;5014562;28;20113;-76
2021/12/19 11:50:25;;;;;;;3.72;0.13;;;7.90;99.90;;;;;;5013962;28;20030;-76
2021/12/19 11:52:54;;;;;;;8.30;0.95;;;7.90;99.90;;;;;;5012263;28;20033;-74
2021/12/19 11:55:23;;;;;;;4.00;0.47;;;7.90;99.90;;;;;;5013754;28;20477;-76
2021/12/19 11:58:12;;;;;;;15.13;1.08;;;7.90;99.90;;;;;;5017479;28;20028;-74
2021/12/19 12:01:02;;;;;;;10.48;0.80;;;7.90;99.90;;;;;;5006799;28;20048;-76
2021/12/19 12:03:32;;;;;;;5.03;1.30;;;7.90;99.90;;;;;;5016769;28;20045;-76
2021/12/19 12:05:58;;;;;;;4.45;0.22;;;7.90;99.90;;;;;;5017400;28;20061;-76
2021/12/19 12:08:25;;;;;;;4.95;0.98;;;7.90;99.90;;;;;;5017540;28;20096;-75
2021/12/19 12:10:59;;;;;;;7.40;0.50;;;7.90;99.90;;;;;;5017124;28;20030;-76
2021/12/19 12:13:26;;;;;;;7.25;0.38;;;7.80;99.90;;;;;;5017463;28;20025;-76
2021/12/19 12:16:06;;;;;;;7.22;0.30;;;7.80;99.90;;;;;;5017399;28;20118;-76
2021/12/19 12:18:38;;;;;;;2.33;0.10;;;7.80;99.90;;;;;;5016872;28;20029;-76
2021/12/19 12:21:20;;;;;;;2.03;0.10;;;7.80;99.90;;;;;;5015919;28;20026;-76
2021/12/19 12:23:55;;;;;;;4.72;0.55;;;7.80;99.90;;;;;;4999578;28;20068;-77
2021/12/19 12:26:45;;;;;;;3.28;0.20;;;7.80;99.90;;;;;;5017538;28;20025;-77
2021/12/19 12:29:11;;;;;;;0.88;0.13;;;7.80;99.90;;;;;;5017049;28;20386;-78
2021/12/19 12:31:37;;;;;;;7.88;0.68;;;7.80;99.90;;;;;;4999719;28;20022;-78
2021/12/19 12:34:06;;;;;;;14.23;0.52;;;7.80;99.90;;;;;;5015723;28;20030;-78
2021/12/19 12:36:33;;;;;;;2.15;0.00;;;7.80;99.90;;;;;;5016044;28;20036;-78
2021/12/19 12:38:58;;;;;;;1.73;0.43;;;7.90;99.90;;;;;;4999532;28;20505;-78
2021/12/19 12:41:40;;;;;;;4.68;0.85;;;7.90;99.90;;;;;;5017411;28;20018;-76
2021/12/19 12:44:11;;;;;;;6.90;0.08;;;7.90;99.90;;;;;;5017541;28;20061;-76
2021/12/19 12:46:38;;;;;;;1.30;0.13;;;7.90;99.90;;;;;;5015502;28;20117;-78
2021/12/19 12:49:20;;;;;;;0.80;0.08;;;7.90;99.90;;;;;;5016877;28;20446;-77
2021/12/19 12:51:49;;;;;;;2.75;0.10;;;7.90;99.90;;;;;;5017094;28;20032;-77
2021/12/19 12:54:21;;;;;;;0.77;0.00;;;7.90;99.90;;;;;;5017151;28;20030;-79
2021/12/19 12:56:50;;;;;;;2.05;0.73;;;7.90;99.90;;;;;;5016969;28;20029;-79
2021/12/19 12:59:19;;;;;;;2.28;0.30;;;7.90;99.90;;;;;;5016750;28;20037;-80
2021/12/19 13:01:53;;;;;;;2.20;0.20;;;7.90;99.90;;;;;;5016989;28;20026;-76
2021/12/19 13:04:24;;;;;;;1.65;0.10;;;7.80;99.90;;;;;;4998787;28;20100;-78
2021/12/19 13:07:00;;;;;;;1.92;0.17;;;7.80;99.90;;;;;;5015329;28;20022;-77
2021/12/19 13:09:34;;;;;;;2.20;0.15;;;7.80;99.90;;;;;;4998598;28;20025;-76
2021/12/19 13:12:16;;;;;;;3.17;0.13;;;7.80;99.90;;;;;;5014605;28;20025;-74
2021/12/19 13:14:50;;;;;;;2.95;0.10;;;7.80;99.90;;;;;;5014837;28;20117;-76
2021/12/19 13:17:21;;;;;;;1.23;0.08;;;7.80;99.90;;;;;;5016320;28;20049;-75
2021/12/19 13:19:57;;;;;;;3.42;0.10;;;7.70;99.90;;;;;;5016132;28;20030;-76
2021/12/19 13:22:28;;;;;;;4.85;0.20;;;7.80;99.90;;;;;;4998616;28;20025;-77
2021/12/19 13:24:56;;;;;;;2.00;0.10;;;7.80;99.90;;;;;;4998194;28;20025;-76
2021/12/19 13:27:31;;;;;;;11.75;0.30;;;7.70;99.90;;;;;;5014363;28;20014;-77
2021/12/19 13:30:24;;;;;;;6.25;0.43;;;7.80;99.90;;;;;;4997945;28;20022;-75
2021/12/19 13:33:01;;;;;;;4.43;0.40;;;7.80;99.90;;;;;;5015654;28;20053;-76
2021/12/19 13:35:38;;;;;;;3.75;0.20;;;7.80;99.90;;;;;;5015439;28;20109;-74
2021/12/19 13:38:04;;;;;;;3.08;0.15;;;7.70;99.90;;;;;;4997878;28;20030;-75
2021/12/19 13:40:42;;;;;;;5.93;1.35;;;7.80;99.90;;;;;;4997777;28;20045;-74
2021/12/19 13:43:16;;;;;;;2.70;0.28;;;7.80;99.90;;;;;;5015287;28;20014;-75
2021/12/19 13:45:47;;;;;;;1.92;0.22;;;7.80;99.90;;;;;;5015112;28;20360;-75
2021/12/19 13:48:18;;;;;;;1.73;0.45;;;7.80;99.90;;;;;;5014617;28;20014;-75
2021/12/19 13:51:05;;;;;;;4.35;0.30;;;7.80;99.90;;;;;;5013555;28;20049;-76
2021/12/19 13:53:33;;;;;;;2.85;0.30;;;7.80;99.90;;;;;;5015123;28;20084;-75
2021/12/19 13:56:02;;;;;;;3.30;0.10;;;7.80;99.90;;;;;;5015244;28;20030;-76
2021/12/19 13:58:35;;;;;;;;;;;7.80;99.90;;;;;;5013887;28;20022;-75
2021/12/19 14:01:10;;;;;;;3.42;0.10;;;7.80;99.90;;;;;;5015110;28;19905;-77
2021/12/19 14:03:50;;;;;;;3.22;0.10;;;7.80;99.90;;;;;;4997886;28;20384;-76
2021/12/19 14:06:23;;;;;;;11.45;0.40;;;7.80;99.90;;;;;;4998058;28;20033;-78
2021/12/19 14:08:58;;;;;;;2.72;0.17;;;7.80;99.90;;;;;;5015288;28;20030;-76
2021/12/19 14:11:28;;;;;;;2.53;0.60;;;7.80;99.90;;;;;;5013489;28;20026;-76
2021/12/19 14:14:01;;;;;;;2.80;0.10;;;7.80;99.90;;;;;;5009209;28;20500;-77
2021/12/19 14:16:34;;;;;;;6.97;0.43;;;7.80;99.90;;;;;;5004320;28;20371;-75
2021/12/19 14:19:00;;;;;;;0.70;0.05;;;7.80;99.90;;;;;;5004898;28;20030;-76